sensor_id;sensor_type;location;lat;lon;timestamp;P1;durP1;ratioP1;P2;durP2;ratioP2
40793;SDS011;26502;51.886;15.604;2023-12-20T00:02:39;14.30;;;9.70;;
40793;SDS011;26502;51.886;15.604;2023-12-20T00:08:09;23.00;;;11.70;;
40793;SDS011;26502;51.886;15.604;2023-12-20T00:13:36;12.50;;;8.30;;
40793;SDS011;26502;51.886;15.604;2023-12-20T00:19:02;7.50;;;4.80;;
40793;SDS011;26502;51.886;15.604;2023-12-20T00:24:30;12.30;;;7.10;;
40793;SDS011;26502;51.886;15.604;2023-12-20T00:29:56;14.20;;;9.60;;
40793;SDS011;26502;51.886;15.604;2023-12-20T00:35:22;15.50;;;7.90;;
40793;SDS011;26502;51.886;15.604;2023-12-20T00:40:48;14.90;;;7.30;;
40793;SDS011;26502;51.886;15.604;2023-12-20T00:46:14;8.00;;;4.90;;
40793;SDS011;26502;51.886;15.604;2023-12-20T00:51:40;5.00;;;4.10;;
40793;SDS011;26502;51.886;15.604;2023-12-20T00:57:06;5.80;;;5.10;;
40793;SDS011;26502;51.886;15.604;2023-12-20T01:02:32;6.50;;;4.60;;
40793;SDS011;26502;51.886;15.604;2023-12-20T01:08:00;4.70;;;3.70;;
40793;SDS011;26502;51.886;15.604;2023-12-20T01:13:27;4.10;;;3.60;;
40793;SDS011;26502;51.886;15.604;2023-12-20T01:18:53;4.40;;;3.90;;
40793;SDS011;26502;51.886;15.604;2023-12-20T01:24:19;4.20;;;3.50;;
40793;SDS011;26502;51.886;15.604;2023-12-20T01:29:45;4.90;;;4.30;;
40793;SDS011;26502;51.886;15.604;2023-12-20T01:35:11;5.50;;;3.90;;
40793;SDS011;26502;51.886;15.604;2023-12-20T01:40:38;4.10;;;3.70;;
40793;SDS011;26502;51.886;15.604;2023-12-20T01:46:04;3.70;;;3.40;;
40793;SDS011;26502;51.886;15.604;2023-12-20T01:51:31;3.40;;;3.10;;
40793;SDS011;26502;51.886;15.604;2023-12-20T01:56:58;3.20;;;2.90;;
40793;SDS011;26502;51.886;15.604;2023-12-20T02:02:26;3.90;;;3.30;;
40793;SDS011;26502;51.886;15.604;2023-12-20T02:07:54;3.10;;;2.80;;
40793;SDS011;26502;51.886;15.604;2023-12-20T02:13:20;2.90;;;2.70;;
40793;SDS011;26502;51.886;15.604;2023-12-20T02:18:52;3.00;;;2.70;;
40793;SDS011;26502;51.886;15.604;2023-12-20T02:24:18;4.10;;;2.70;;
40793;SDS011;26502;51.886;15.604;2023-12-20T02:29:43;3.10;;;2.80;;
40793;SDS011;26502;51.886;15.604;2023-12-20T02:35:10;3.10;;;2.80;;
40793;SDS011;26502;51.886;15.604;2023-12-20T02:40:36;3.00;;;2.40;;
40793;SDS011;26502;51.886;15.604;2023-12-20T02:46:02;3.10;;;2.80;;
40793;SDS011;26502;51.886;15.604;2023-12-20T02:51:28;3.40;;;3.10;;
40793;SDS011;26502;51.886;15.604;2023-12-20T02:56:54;3.50;;;3.20;;
40793;SDS011;26502;51.886;15.604;2023-12-20T03:02:21;2.70;;;2.50;;
40793;SDS011;26502;51.886;15.604;2023-12-20T03:07:47;2.90;;;2.70;;
40793;SDS011;26502;51.886;15.604;2023-12-20T03:13:13;2.50;;;2.30;;
40793;SDS011;26502;51.886;15.604;2023-12-20T03:18:40;2.80;;;2.20;;
40793;SDS011;26502;51.886;15.604;2023-12-20T03:24:06;2.00;;;1.90;;
40793;SDS011;26502;51.886;15.604;2023-12-20T03:29:32;2.00;;;1.90;;
40793;SDS011;26502;51.886;15.604;2023-12-20T03:34:59;2.60;;;2.40;;
40793;SDS011;26502;51.886;15.604;2023-12-20T03:40:26;2.40;;;2.20;;
40793;SDS011;26502;51.886;15.604;2023-12-20T03:45:53;2.50;;;2.30;;
40793;SDS011;26502;51.886;15.604;2023-12-20T03:51:19;2.10;;;1.90;;
40793;SDS011;26502;51.886;15.604;2023-12-20T03:56:45;2.40;;;1.90;;
40793;SDS011;26502;51.886;15.604;2023-12-20T04:02:14;3.90;;;2.60;;
40793;SDS011;26502;51.886;15.604;2023-12-20T04:07:40;3.20;;;2.60;;
40793;SDS011;26502;51.886;15.604;2023-12-20T04:13:07;4.70;;;3.40;;
40793;SDS011;26502;51.886;15.604;2023-12-20T04:18:33;2.30;;;2.10;;
40793;SDS011;26502;51.886;15.604;2023-12-20T04:24:00;2.30;;;2.10;;
40793;SDS011;26502;51.886;15.604;2023-12-20T04:29:26;2.90;;;2.60;;
40793;SDS011;26502;51.886;15.604;2023-12-20T04:34:52;2.60;;;2.20;;
40793;SDS011;26502;51.886;15.604;2023-12-20T04:40:18;2.70;;;2.10;;
40793;SDS011;26502;51.886;15.604;2023-12-20T04:45:44;4.50;;;4.00;;
40793;SDS011;26502;51.886;15.604;2023-12-20T04:51:10;2.00;;;1.90;;
40793;SDS011;26502;51.886;15.604;2023-12-20T04:56:36;1.90;;;1.80;;
40793;SDS011;26502;51.886;15.604;2023-12-20T05:02:03;2.10;;;1.90;;
40793;SDS011;26502;51.886;15.604;2023-12-20T05:07:29;1.50;;;1.40;;
40793;SDS011;26502;51.886;15.604;2023-12-20T05:12:56;1.20;;;1.20;;
40793;SDS011;26502;51.886;15.604;2023-12-20T05:18:22;3.10;;;2.60;;
40793;SDS011;26502;51.886;15.604;2023-12-20T05:23:49;1.90;;;1.70;;
40793;SDS011;26502;51.886;15.604;2023-12-20T05:29:15;3.10;;;1.20;;
40793;SDS011;26502;51.886;15.604;2023-12-20T05:34:41;1.30;;;1.20;;
40793;SDS011;26502;51.886;15.604;2023-12-20T05:40:08;0.90;;;0.90;;
40793;SDS011;26502;51.886;15.604;2023-12-20T05:45:34;1.10;;;1.00;;
40793;SDS011;26502;51.886;15.604;2023-12-20T05:51:01;0.80;;;0.80;;
40793;SDS011;26502;51.886;15.604;2023-12-20T05:56:27;1.00;;;1.00;;
40793;SDS011;26502;51.886;15.604;2023-12-20T06:01:53;1.00;;;1.00;;
40793;SDS011;26502;51.886;15.604;2023-12-20T06:07:19;1.30;;;1.10;;
40793;SDS011;26502;51.886;15.604;2023-12-20T06:12:46;6.80;;;4.40;;
40793;SDS011;26502;51.886;15.604;2023-12-20T06:18:13;1.60;;;1.50;;
40793;SDS011;26502;51.886;15.604;2023-12-20T06:23:39;1.50;;;1.10;;
40793;SDS011;26502;51.886;15.604;2023-12-20T06:29:06;4.60;;;1.30;;
40793;SDS011;26502;51.886;15.604;2023-12-20T06:34:32;1.60;;;1.50;;
40793;SDS011;26502;51.886;15.604;2023-12-20T06:39:58;1.20;;;1.10;;
40793;SDS011;26502;51.886;15.604;2023-12-20T06:45:24;2.10;;;1.90;;
40793;SDS011;26502;51.886;15.604;2023-12-20T06:50:50;2.90;;;1.90;;
40793;SDS011;26502;51.886;15.604;2023-12-20T06:56:19;2.40;;;1.70;;
40793;SDS011;26502;51.886;15.604;2023-12-20T07:01:48;1.50;;;1.30;;
40793;SDS011;26502;51.886;15.604;2023-12-20T07:07:15;1.90;;;1.70;;
40793;SDS011;26502;51.886;15.604;2023-12-20T07:12:41;1.80;;;1.50;;
40793;SDS011;26502;51.886;15.604;2023-12-20T07:18:07;2.20;;;1.50;;
40793;SDS011;26502;51.886;15.604;2023-12-20T07:23:33;2.00;;;1.60;;
40793;SDS011;26502;51.886;15.604;2023-12-20T07:28:59;2.40;;;1.90;;
40793;SDS011;26502;51.886;15.604;2023-12-20T07:34:27;2.40;;;2.20;;
40793;SDS011;26502;51.886;15.604;2023-12-20T07:39:53;2.80;;;2.30;;
40793;SDS011;26502;51.886;15.604;2023-12-20T07:45:19;3.50;;;2.00;;
40793;SDS011;26502;51.886;15.604;2023-12-20T07:50:46;2.60;;;1.50;;
40793;SDS011;26502;51.886;15.604;2023-12-20T07:56:16;2.00;;;1.90;;
40793;SDS011;26502;51.886;15.604;2023-12-20T08:01:42;6.40;;;2.30;;
40793;SDS011;26502;51.886;15.604;2023-12-20T08:07:09;2.50;;;1.80;;
40793;SDS011;26502;51.886;15.604;2023-12-20T08:12:35;3.30;;;1.50;;
40793;SDS011;26502;51.886;15.604;2023-12-20T08:18:03;2.40;;;1.70;;
40793;SDS011;26502;51.886;15.604;2023-12-20T08:23:30;3.90;;;2.50;;
40793;SDS011;26502;51.886;15.604;2023-12-20T08:28:58;5.60;;;1.90;;
40793;SDS011;26502;51.886;15.604;2023-12-20T08:34:24;3.00;;;2.30;;
40793;SDS011;26502;51.886;15.604;2023-12-20T08:39:52;3.70;;;2.90;;
40793;SDS011;26502;51.886;15.604;2023-12-20T08:45:18;7.40;;;3.80;;
40793;SDS011;26502;51.886;15.604;2023-12-20T08:50:45;4.40;;;2.30;;
40793;SDS011;26502;51.886;15.604;2023-12-20T08:56:14;5.30;;;2.20;;
40793;SDS011;26502;51.886;15.604;2023-12-20T09:01:40;6.80;;;2.80;;
40793;SDS011;26502;51.886;15.604;2023-12-20T09:07:06;6.20;;;2.00;;
40793;SDS011;26502;51.886;15.604;2023-12-20T09:12:44;6.30;;;2.00;;
40793;SDS011;26502;51.886;15.604;2023-12-20T09:18:10;3.60;;;1.70;;
40793;SDS011;26502;51.886;15.604;2023-12-20T09:23:37;8.50;;;3.30;;
40793;SDS011;26502;51.886;15.604;2023-12-20T09:29:03;7.80;;;3.00;;
40793;SDS011;26502;51.886;15.604;2023-12-20T09:34:30;5.50;;;2.60;;
40793;SDS011;26502;51.886;15.604;2023-12-20T09:39:57;5.40;;;2.20;;
40793;SDS011;26502;51.886;15.604;2023-12-20T09:45:23;6.40;;;2.70;;
40793;SDS011;26502;51.886;15.604;2023-12-20T09:50:49;4.70;;;2.50;;
40793;SDS011;26502;51.886;15.604;2023-12-20T09:56:16;5.20;;;3.00;;
40793;SDS011;26502;51.886;15.604;2023-12-20T10:01:43;7.90;;;2.80;;
40793;SDS011;26502;51.886;15.604;2023-12-20T10:07:10;7.10;;;2.80;;
40793;SDS011;26502;51.886;15.604;2023-12-20T10:12:36;8.70;;;2.80;;
40793;SDS011;26502;51.886;15.604;2023-12-20T10:18:03;8.30;;;2.70;;
40793;SDS011;26502;51.886;15.604;2023-12-20T10:23:30;8.90;;;2.80;;
40793;SDS011;26502;51.886;15.604;2023-12-20T10:28:56;7.90;;;2.80;;
40793;SDS011;26502;51.886;15.604;2023-12-20T10:34:26;4.20;;;1.80;;
40793;SDS011;26502;51.886;15.604;2023-12-20T10:39:53;6.10;;;2.40;;
40793;SDS011;26502;51.886;15.604;2023-12-20T10:45:20;4.60;;;2.10;;
40793;SDS011;26502;51.886;15.604;2023-12-20T10:50:47;9.80;;;2.20;;
40793;SDS011;26502;51.886;15.604;2023-12-20T10:56:15;6.90;;;2.90;;
40793;SDS011;26502;51.886;15.604;2023-12-20T11:01:42;4.30;;;1.90;;
40793;SDS011;26502;51.886;15.604;2023-12-20T11:07:11;4.50;;;1.90;;
40793;SDS011;26502;51.886;15.604;2023-12-20T11:12:46;5.10;;;2.40;;
40793;SDS011;26502;51.886;15.604;2023-12-20T11:18:17;5.30;;;2.80;;
40793;SDS011;26502;51.886;15.604;2023-12-20T11:23:44;7.60;;;2.80;;
40793;SDS011;26502;51.886;15.604;2023-12-20T11:34:57;7.30;;;3.00;;
40793;SDS011;26502;51.886;15.604;2023-12-20T11:40:24;7.20;;;2.80;;
40793;SDS011;26502;51.886;15.604;2023-12-20T11:45:50;4.40;;;1.70;;
40793;SDS011;26502;51.886;15.604;2023-12-20T11:51:16;7.00;;;2.20;;
40793;SDS011;26502;51.886;15.604;2023-12-20T11:56:43;11.70;;;1.90;;
40793;SDS011;26502;51.886;15.604;2023-12-20T12:02:11;2.30;;;1.60;;
40793;SDS011;26502;51.886;15.604;2023-12-20T12:07:38;5.80;;;2.00;;
40793;SDS011;26502;51.886;15.604;2023-12-20T12:13:04;5.10;;;1.80;;
40793;SDS011;26502;51.886;15.604;2023-12-20T12:18:30;5.10;;;2.20;;
40793;SDS011;26502;51.886;15.604;2023-12-20T12:24:05;5.70;;;1.70;;
40793;SDS011;26502;51.886;15.604;2023-12-20T12:29:32;4.50;;;1.80;;
40793;SDS011;26502;51.886;15.604;2023-12-20T12:34:59;9.00;;;2.60;;
40793;SDS011;26502;51.886;15.604;2023-12-20T12:40:26;5.00;;;1.60;;
40793;SDS011;26502;51.886;15.604;2023-12-20T12:45:53;6.50;;;2.20;;
40793;SDS011;26502;51.886;15.604;2023-12-20T12:51:19;5.50;;;2.20;;
40793;SDS011;26502;51.886;15.604;2023-12-20T12:56:46;9.20;;;2.90;;
40793;SDS011;26502;51.886;15.604;2023-12-20T13:02:13;7.50;;;2.00;;
40793;SDS011;26502;51.886;15.604;2023-12-20T13:07:40;3.50;;;1.40;;
40793;SDS011;26502;51.886;15.604;2023-12-20T13:13:08;7.40;;;1.50;;
40793;SDS011;26502;51.886;15.604;2023-12-20T13:18:34;9.60;;;2.50;;
40793;SDS011;26502;51.886;15.604;2023-12-20T13:24:00;6.10;;;1.90;;
40793;SDS011;26502;51.886;15.604;2023-12-20T13:29:26;5.30;;;2.20;;
40793;SDS011;26502;51.886;15.604;2023-12-20T13:34:52;6.90;;;2.50;;
40793;SDS011;26502;51.886;15.604;2023-12-20T13:40:19;8.40;;;3.00;;
40793;SDS011;26502;51.886;15.604;2023-12-20T13:45:45;7.30;;;2.50;;
40793;SDS011;26502;51.886;15.604;2023-12-20T13:51:11;5.70;;;2.70;;
40793;SDS011;26502;51.886;15.604;2023-12-20T13:56:39;12.40;;;2.70;;
40793;SDS011;26502;51.886;15.604;2023-12-20T14:02:07;5.90;;;2.70;;
40793;SDS011;26502;51.886;15.604;2023-12-20T14:07:33;7.20;;;2.50;;
40793;SDS011;26502;51.886;15.604;2023-12-20T14:12:59;8.10;;;2.80;;
40793;SDS011;26502;51.886;15.604;2023-12-20T14:18:25;6.60;;;2.60;;
40793;SDS011;26502;51.886;15.604;2023-12-20T14:23:52;4.90;;;2.00;;
40793;SDS011;26502;51.886;15.604;2023-12-20T14:29:18;6.00;;;2.60;;
40793;SDS011;26502;51.886;15.604;2023-12-20T14:34:45;11.00;;;3.30;;
40793;SDS011;26502;51.886;15.604;2023-12-20T14:40:12;7.40;;;2.70;;
40793;SDS011;26502;51.886;15.604;2023-12-20T14:45:39;8.70;;;2.70;;
40793;SDS011;26502;51.886;15.604;2023-12-20T14:51:05;6.80;;;2.20;;
40793;SDS011;26502;51.886;15.604;2023-12-20T14:56:32;8.60;;;2.10;;
40793;SDS011;26502;51.886;15.604;2023-12-20T15:01:58;9.50;;;4.40;;
40793;SDS011;26502;51.886;15.604;2023-12-20T15:07:27;10.60;;;2.90;;
40793;SDS011;26502;51.886;15.604;2023-12-20T15:12:54;14.50;;;3.80;;
40793;SDS011;26502;51.886;15.604;2023-12-20T15:18:20;10.50;;;5.00;;
40793;SDS011;26502;51.886;15.604;2023-12-20T15:23:46;9.90;;;3.50;;
40793;SDS011;26502;51.886;15.604;2023-12-20T15:29:16;8.80;;;2.70;;
40793;SDS011;26502;51.886;15.604;2023-12-20T15:34:42;12.10;;;5.90;;
40793;SDS011;26502;51.886;15.604;2023-12-20T15:40:09;6.50;;;3.80;;
40793;SDS011;26502;51.886;15.604;2023-12-20T15:45:36;9.30;;;3.30;;
40793;SDS011;26502;51.886;15.604;2023-12-20T15:51:05;10.80;;;3.20;;
40793;SDS011;26502;51.886;15.604;2023-12-20T15:56:32;12.60;;;6.90;;
40793;SDS011;26502;51.886;15.604;2023-12-20T16:01:58;10.20;;;4.50;;
40793;SDS011;26502;51.886;15.604;2023-12-20T16:07:24;6.00;;;2.30;;
40793;SDS011;26502;51.886;15.604;2023-12-20T16:12:50;5.00;;;2.50;;
40793;SDS011;26502;51.886;15.604;2023-12-20T16:18:16;4.30;;;2.70;;
40793;SDS011;26502;51.886;15.604;2023-12-20T16:23:42;3.70;;;2.20;;
40793;SDS011;26502;51.886;15.604;2023-12-20T16:29:08;6.30;;;2.40;;
40793;SDS011;26502;51.886;15.604;2023-12-20T16:34:35;6.10;;;3.50;;
40793;SDS011;26502;51.886;15.604;2023-12-20T16:40:02;10.10;;;6.00;;
40793;SDS011;26502;51.886;15.604;2023-12-20T16:45:29;7.50;;;4.00;;
40793;SDS011;26502;51.886;15.604;2023-12-20T16:50:55;8.30;;;3.30;;
40793;SDS011;26502;51.886;15.604;2023-12-20T16:56:21;3.80;;;2.10;;
40793;SDS011;26502;51.886;15.604;2023-12-20T17:01:47;4.70;;;1.80;;
40793;SDS011;26502;51.886;15.604;2023-12-20T17:07:14;8.20;;;1.80;;
40793;SDS011;26502;51.886;15.604;2023-12-20T17:12:41;6.10;;;1.80;;
40793;SDS011;26502;51.886;15.604;2023-12-20T17:18:07;4.00;;;2.10;;
40793;SDS011;26502;51.886;15.604;2023-12-20T17:23:33;7.40;;;2.60;;
40793;SDS011;26502;51.886;15.604;2023-12-20T17:28:59;7.40;;;3.70;;
40793;SDS011;26502;51.886;15.604;2023-12-20T17:34:26;6.40;;;3.60;;
40793;SDS011;26502;51.886;15.604;2023-12-20T17:39:52;11.60;;;6.80;;
40793;SDS011;26502;51.886;15.604;2023-12-20T17:45:18;20.90;;;12.10;;
40793;SDS011;26502;51.886;15.604;2023-12-20T17:50:47;30.40;;;17.60;;
40793;SDS011;26502;51.886;15.604;2023-12-20T17:56:13;15.20;;;8.40;;
40793;SDS011;26502;51.886;15.604;2023-12-20T18:01:40;8.50;;;4.20;;
40793;SDS011;26502;51.886;15.604;2023-12-20T18:07:06;22.30;;;9.10;;
40793;SDS011;26502;51.886;15.604;2023-12-20T18:12:32;21.20;;;9.30;;
40793;SDS011;26502;51.886;15.604;2023-12-20T18:17:58;19.20;;;8.30;;
40793;SDS011;26502;51.886;15.604;2023-12-20T18:23:24;12.80;;;5.30;;
40793;SDS011;26502;51.886;15.604;2023-12-20T18:28:51;15.50;;;6.10;;
40793;SDS011;26502;51.886;15.604;2023-12-20T18:34:17;47.40;;;19.60;;
40793;SDS011;26502;51.886;15.604;2023-12-20T18:39:43;33.40;;;11.40;;
40793;SDS011;26502;51.886;15.604;2023-12-20T18:45:11;33.80;;;12.30;;
40793;SDS011;26502;51.886;15.604;2023-12-20T18:50:37;58.10;;;21.70;;
40793;SDS011;26502;51.886;15.604;2023-12-20T18:56:04;11.90;;;6.50;;
40793;SDS011;26502;51.886;15.604;2023-12-20T19:01:32;16.70;;;5.00;;
40793;SDS011;26502;51.886;15.604;2023-12-20T19:06:58;18.20;;;7.90;;
40793;SDS011;26502;51.886;15.604;2023-12-20T19:12:24;14.60;;;7.30;;
40793;SDS011;26502;51.886;15.604;2023-12-20T19:17:50;26.50;;;10.70;;
40793;SDS011;26502;51.886;15.604;2023-12-20T19:23:17;4.30;;;2.40;;
40793;SDS011;26502;51.886;15.604;2023-12-20T19:28:43;17.40;;;7.20;;
40793;SDS011;26502;51.886;15.604;2023-12-20T19:34:09;56.60;;;17.20;;
40793;SDS011;26502;51.886;15.604;2023-12-20T19:39:37;13.30;;;5.40;;
40793;SDS011;26502;51.886;15.604;2023-12-20T19:45:04;18.40;;;9.20;;
40793;SDS011;26502;51.886;15.604;2023-12-20T19:50:32;34.10;;;16.70;;
40793;SDS011;26502;51.886;15.604;2023-12-20T19:55:58;26.10;;;15.00;;
40793;SDS011;26502;51.886;15.604;2023-12-20T20:01:25;12.20;;;5.60;;
40793;SDS011;26502;51.886;15.604;2023-12-20T20:06:51;10.40;;;4.50;;
40793;SDS011;26502;51.886;15.604;2023-12-20T20:12:17;15.70;;;3.90;;
40793;SDS011;26502;51.886;15.604;2023-12-20T20:17:44;10.20;;;5.00;;
40793;SDS011;26502;51.886;15.604;2023-12-20T20:23:10;10.40;;;5.00;;
40793;SDS011;26502;51.886;15.604;2023-12-20T20:28:36;18.80;;;8.90;;
40793;SDS011;26502;51.886;15.604;2023-12-20T20:34:02;14.10;;;7.90;;
40793;SDS011;26502;51.886;15.604;2023-12-20T20:39:29;14.30;;;6.70;;
40793;SDS011;26502;51.886;15.604;2023-12-20T20:44:57;23.00;;;11.70;;
40793;SDS011;26502;51.886;15.604;2023-12-20T20:50:23;39.30;;;16.50;;
40793;SDS011;26502;51.886;15.604;2023-12-20T20:55:51;26.80;;;11.20;;
40793;SDS011;26502;51.886;15.604;2023-12-20T21:01:17;56.70;;;19.60;;
40793;SDS011;26502;51.886;15.604;2023-12-20T21:06:44;43.80;;;15.90;;
40793;SDS011;26502;51.886;15.604;2023-12-20T21:12:11;16.70;;;6.60;;
40793;SDS011;26502;51.886;15.604;2023-12-20T21:17:38;16.10;;;6.40;;
40793;SDS011;26502;51.886;15.604;2023-12-20T21:23:07;11.20;;;5.00;;
40793;SDS011;26502;51.886;15.604;2023-12-20T21:28:33;6.40;;;3.10;;
40793;SDS011;26502;51.886;15.604;2023-12-20T21:34:00;10.20;;;3.80;;
40793;SDS011;26502;51.886;15.604;2023-12-20T21:39:26;7.70;;;2.90;;
40793;SDS011;26502;51.886;15.604;2023-12-20T21:44:52;7.50;;;2.40;;
40793;SDS011;26502;51.886;15.604;2023-12-20T21:50:19;5.40;;;2.00;;
40793;SDS011;26502;51.886;15.604;2023-12-20T21:55:45;10.60;;;4.30;;
40793;SDS011;26502;51.886;15.604;2023-12-20T22:01:12;9.90;;;4.00;;
40793;SDS011;26502;51.886;15.604;2023-12-20T22:06:39;9.00;;;2.60;;
40793;SDS011;26502;51.886;15.604;2023-12-20T22:12:06;9.40;;;4.30;;
40793;SDS011;26502;51.886;15.604;2023-12-20T22:17:32;11.20;;;2.20;;
40793;SDS011;26502;51.886;15.604;2023-12-20T22:22:58;4.20;;;2.20;;
40793;SDS011;26502;51.886;15.604;2023-12-20T22:28:26;10.50;;;5.20;;
40793;SDS011;26502;51.886;15.604;2023-12-20T22:33:52;19.30;;;6.40;;
40793;SDS011;26502;51.886;15.604;2023-12-20T22:39:18;31.30;;;12.00;;
40793;SDS011;26502;51.886;15.604;2023-12-20T22:44:45;7.40;;;3.10;;
40793;SDS011;26502;51.886;15.604;2023-12-20T22:50:17;13.00;;;4.00;;
40793;SDS011;26502;51.886;15.604;2023-12-20T22:55:46;14.90;;;6.30;;
40793;SDS011;26502;51.886;15.604;2023-12-20T23:01:12;5.80;;;2.60;;
40793;SDS011;26502;51.886;15.604;2023-12-20T23:06:40;6.90;;;2.40;;
40793;SDS011;26502;51.886;15.604;2023-12-20T23:12:08;7.60;;;2.40;;
40793;SDS011;26502;51.886;15.604;2023-12-20T23:17:34;2.50;;;1.30;;
40793;SDS011;26502;51.886;15.604;2023-12-20T23:23:00;4.40;;;2.00;;
40793;SDS011;26502;51.886;15.604;2023-12-20T23:28:26;3.70;;;1.80;;
40793;SDS011;26502;51.886;15.604;2023-12-20T23:33:52;48.10;;;27.80;;
40793;SDS011;26502;51.886;15.604;2023-12-20T23:39:18;10.50;;;4.10;;
40793;SDS011;26502;51.886;15.604;2023-12-20T23:44:45;13.30;;;8.70;;
40793;SDS011;26502;51.886;15.604;2023-12-20T23:50:11;36.90;;;13.10;;
40793;SDS011;26502;51.886;15.604;2023-12-20T23:55:37;26.40;;;7.90;;
